Time;durP1;ratioP1;P1;durP2;ratioP2;P2;SDS_P1;SDS_P2;PMS_P1;PMS_P2;Temp;Humidity;BMP_temperature;BMP_pressure;BME280_temperature;BME280_humidity;BME280_pressure;Samples;Min_cycle;Max_cycle;Signal;HPM_P1;HPM_P2
2023/03/20 16:52:57;;;;;;;16.48;10.93;;;;;;;19.66;35.58;101035.69;5123983;27;20453;-75
2023/03/20 16:55:32;;;;;;;16.95;12.20;;;;;;;19.67;36.00;101044.59;5112423;28;20388;-76
2023/03/20 16:58:02;;;;;;;20.67;13.75;;;;;;;19.67;35.88;101048.09;5109181;28;20394;-75
2023/03/20 17:00:41;;;;;;;22.27;14.63;;;;;;;19.66;35.18;101045.63;5107446;28;20713;-76
2023/03/20 17:03:16;;;;;;;16.85;12.15;;;;;;;19.61;35.98;101038.22;5108597;28;20475;-76
2023/03/20 17:06:05;;;;;;;43.80;26.25;;;;;;;19.62;36.17;101031.78;5108327;28;20783;-76
2023/03/20 17:08:35;;;;;;;103.33;86.90;;;;;;;19.60;35.71;101028.50;5107882;28;20377;-76
2023/03/20 17:11:10;;;;;;;71.40;59.57;;;;;;;19.58;35.16;101029.78;5108368;28;20776;-77
2023/03/20 17:13:36;;;;;;;46.63;39.83;;;;;;;19.49;34.77;101031.94;5108407;28;20450;-77
2023/03/20 17:16:01;;;;;;;324.52;280.85;;;;;;;19.35;35.05;101041.16;5090911;28;20376;-76
2023/03/20 17:18:27;;;;;;;110.47;47.15;;;;;;;19.08;35.69;101050.25;5108780;28;20369;-78
2023/03/20 17:20:53;;;;;;;88.40;44.63;;;;;;;18.95;35.76;101049.53;5108514;28;20416;-76
2023/03/20 17:23:21;;;;;;;65.97;38.93;;;;;;;18.95;35.80;101057.59;5109155;28;20365;-77
2023/03/20 17:25:48;;;;;;;94.28;60.80;;;;;;;18.83;35.76;101052.09;5107895;28;20372;-76
2023/03/20 17:28:19;;;;;;;97.37;62.53;;;;;;;18.67;35.65;101054.22;5107690;28;20364;-76
2023/03/20 17:30:45;;;;;;;90.80;54.67;;;;;;;18.57;35.98;101053.84;5107750;28;20400;-76
2023/03/20 17:33:15;;;;;;;63.00;38.97;;;;;;;18.36;36.25;101054.16;5105632;28;20394;-76
2023/03/20 17:35:41;;;;;;;67.80;38.03;;;;;;;18.25;36.72;101044.91;5106737;28;20434;-76
2023/03/20 17:38:20;;;;;;;63.67;36.33;;;;;;;18.11;37.09;101054.88;5092948;28;20868;-76
2023/03/20 17:40:47;;;;;;;50.75;30.55;;;;;;;17.99;36.99;101052.03;5102700;28;20372;-75
2023/03/20 17:43:15;;;;;;;82.65;50.55;;;;;;;18.01;37.15;101046.47;5108672;28;20383;-77
2023/03/20 17:45:42;;;;;;;137.20;92.65;;;;;;;18.00;37.21;101045.63;5106791;28;20377;-76
2023/03/20 17:48:17;;;;;;;60.47;38.67;;;;;;;17.92;37.21;101041.31;5107457;28;20449;-75
2023/03/20 17:50:49;;;;;;;64.00;41.00;;;;;;;17.84;37.34;101049.53;5105273;28;20416;-75
2023/03/20 17:53:23;;;;;;;69.63;38.47;;;;;;;17.66;37.68;101060.09;5108016;28;20375;-76
2023/03/20 17:55:50;;;;;;;28.25;16.73;;;;;;;17.14;38.58;101060.75;5107147;28;20928;-77
2023/03/20 17:58:20;;;;;;;30.77;17.50;;;;;;;16.84;39.26;101065.66;5106860;28;20437;-77
2023/03/20 18:00:47;;;;;;;47.47;26.30;;;;;;;16.71;39.48;101065.56;5106212;28;20712;-75
2023/03/20 18:03:14;;;;;;;53.40;26.50;;;;;;;16.76;39.23;101069.31;5097930;28;20387;-76
2023/03/20 18:05:40;;;;;;;70.90;29.65;;;;;;;16.73;39.29;101071.56;5092252;28;20461;-77
2023/03/20 18:08:13;;;;;;;66.70;30.02;;;;;;;16.56;39.44;101066.56;5091465;28;20873;-77
2023/03/20 18:10:39;;;;;;;94.72;38.63;;;;;;;16.53;39.67;101077.69;5088790;28;20502;-76
2023/03/20 18:13:04;;;;;;;72.57;32.83;;;;;;;16.39;39.94;101075.97;5090474;28;20369;-76
2023/03/20 18:15:30;;;;;;;53.78;27.20;;;;;;;16.31;40.02;101076.13;5090660;28;20428;-76
2023/03/20 18:17:55;;;;;;;52.73;27.50;;;;;;;16.35;40.06;101083.56;5090849;28;20444;-75
2023/03/20 18:20:27;;;;;;;43.13;22.57;;;;;;;16.34;40.09;101078.41;5091370;28;20425;-76
2023/03/20 18:22:53;;;;;;;58.47;34.45;;;;;;;16.38;40.11;101083.16;5090881;28;20412;-77
2023/03/20 18:25:18;;;;;;;42.77;24.10;;;;;;;16.32;40.05;101083.97;5091365;28;20413;-77
2023/03/20 18:27:44;;;;;;;44.67;24.25;;;;;;;16.18;40.32;101091.09;5090599;28;20438;-77
2023/03/20 18:30:18;;;;;;;43.47;24.70;;;;;;;16.11;40.12;101094.75;5091072;28;20460;-76
2023/03/20 18:32:44;;;;;;;57.40;30.40;;;;;;;16.02;40.22;101092.22;5077324;28;20802;-76
2023/03/20 18:35:10;;;;;;;35.67;20.00;;;;;;;15.86;40.18;101100.56;5090076;28;20438;-77
2023/03/20 18:37:36;;;;;;;21.23;12.00;;;;;;;15.48;41.02;101112.41;5091651;28;20460;-77
2023/03/20 18:40:02;;;;;;;21.47;13.77;;;;;;;15.35;41.23;101104.25;5090733;28;20389;-76
2023/03/20 18:42:27;;;;;;;27.63;17.57;;;;;;;15.47;41.17;101107.25;5090280;28;20384;-78
2023/03/20 18:44:53;;;;;;;30.15;18.52;;;;;;;15.50;41.00;101101.50;5090384;28;20389;-76
2023/03/20 18:47:18;;;;;;;26.33;16.40;;;;;;;15.40;41.15;101095.66;5090158;28;20417;-76
2023/03/20 18:49:44;;;;;;;30.35;18.27;;;;;;;15.32;41.44;101101.13;5090569;28;20827;-75
2023/03/20 18:52:13;;;;;;;35.23;20.00;;;;;;;15.34;41.39;101105.28;5090047;28;20514;-76
2023/03/20 18:54:38;;;;;;;49.25;28.98;;;;;;;15.34;41.39;101099.09;5091290;28;20888;-76
2023/03/20 18:57:04;;;;;;;62.93;35.30;;;;;;;15.33;41.49;101098.28;5088935;28;20369;-76
2023/03/20 18:59:29;;;;;;;78.22;37.17;;;;;;;15.31;41.51;101103.00;5091011;28;20392;-76
2023/03/20 19:01:55;;;;;;;35.93;21.73;;;;;;;15.22;41.89;101099.63;5089783;28;20403;-76
2023/03/20 19:04:21;;;;;;;32.08;19.60;;;;;;;15.22;41.73;101104.13;5089814;28;20780;-76
2023/03/20 19:06:48;;;;;;;30.63;19.40;;;;;;;15.14;41.91;101104.25;5092063;28;20408;-77
2023/03/20 19:09:14;;;;;;;38.47;22.47;;;;;;;15.12;41.86;101095.59;5091714;28;20402;-77
2023/03/20 19:11:40;;;;;;;34.80;22.03;;;;;;;15.23;41.69;101103.09;5089646;28;20496;-77
2023/03/20 19:14:06;;;;;;;45.73;31.87;;;;;;;15.37;41.31;101101.38;5088077;28;20986;-77
2023/03/20 19:16:34;;;;;;;43.40;26.63;;;;;;;15.39;41.43;101099.34;5088611;28;20382;-76
2023/03/20 19:19:02;;;;;;;33.95;20.30;;;;;;;15.37;41.17;101104.06;5089359;28;20373;-75
2023/03/20 19:21:29;;;;;;;29.20;18.80;;;;;;;15.44;41.03;101100.41;5089662;28;21058;-77
2023/03/20 19:24:03;;;;;;;27.63;17.35;;;;;;;15.52;40.96;101098.63;5091123;28;20373;-76
2023/03/20 19:26:31;;;;;;;25.97;19.23;;;;;;;15.55;40.44;101099.06;5086886;28;20375;-74
2023/03/20 19:28:58;;;;;;;25.40;16.55;;;;;;;15.51;40.60;101083.63;5083351;28;20873;-75
2023/03/20 19:31:24;;;;;;;20.83;15.52;;;;;;;15.64;40.17;101086.41;5090318;28;20915;-76
2023/03/20 19:33:50;;;;;;;31.88;21.77;;;;;;;15.74;39.84;101086.94;5090254;28;20427;-76
2023/03/20 19:36:33;;;;;;;37.43;22.83;;;;;;;15.56;40.46;101078.53;5091722;28;20374;-75
2023/03/20 19:39:02;;;;;;;29.67;18.13;;;;;;;15.16;41.88;101095.06;5092930;28;20382;-76
2023/03/20 19:41:28;;;;;;;23.42;14.50;;;;;;;15.03;42.33;101090.38;5079427;28;20365;-76
2023/03/20 19:43:55;;;;;;;24.55;14.55;;;;;;;15.03;42.16;101084.22;5091322;28;20432;-76
2023/03/20 19:46:22;;;;;;;23.80;15.80;;;;;;;15.07;42.50;101085.50;5077399;28;20400;-75
2023/03/20 19:48:47;;;;;;;27.23;15.87;;;;;;;14.83;42.93;101089.34;5085913;28;20389;-76
2023/03/20 19:51:17;;;;;;;20.37;14.60;;;;;;;14.76;42.63;101088.47;5084952;28;20417;-77
2023/03/20 19:53:44;;;;;;;20.38;14.82;;;;;;;14.71;42.51;101086.34;5090289;28;20392;-77
2023/03/20 19:56:11;;;;;;;17.98;12.55;;;;;;;14.81;42.07;101092.22;5090504;28;20370;-76
2023/03/20 19:58:38;;;;;;;24.33;17.15;;;;;;;14.85;41.91;101081.97;5089878;28;20482;-76
2023/03/20 20:01:05;;;;;;;17.03;11.67;;;;;;;14.92;41.94;101098.91;5090079;28;20378;-76
2023/03/20 20:03:31;;;;;;;18.85;12.38;;;;;;;14.77;41.97;101095.47;5091103;28;20389;-77
2023/03/20 20:05:58;;;;;;;17.02;12.05;;;;;;;14.76;42.07;101089.28;5089891;28;20370;-77
2023/03/20 20:08:25;;;;;;;19.48;11.80;;;;;;;14.76;41.77;101094.63;5092012;28;20405;-76
2023/03/20 20:10:51;;;;;;;19.13;12.95;;;;;;;14.81;41.88;101092.22;5090920;28;20447;-77
2023/03/20 20:13:29;;;;;;;20.85;15.10;;;;;;;14.87;41.58;101094.13;5087475;28;20369;-75
2023/03/20 20:15:55;;;;;;;24.48;16.27;;;;;;;14.99;41.57;101096.31;5090098;28;20464;-76
2023/03/20 20:18:22;;;;;;;25.88;16.92;;;;;;;14.99;41.39;101102.47;5090147;28;20381;-76
2023/03/20 20:20:51;;;;;;;23.52;16.35;;;;;;;14.95;41.37;101105.72;5090371;28;20737;-76
2023/03/20 20:23:22;;;;;;;28.45;20.55;;;;;;;15.05;41.20;101107.06;5090362;28;20377;-76
2023/03/20 20:25:49;;;;;;;32.72;24.70;;;;;;;15.21;41.03;101102.47;5092661;28;20472;-76
2023/03/20 20:28:17;;;;;;;32.55;23.65;;;;;;;15.28;40.85;101103.38;5089820;28;20464;-76
2023/03/20 20:30:55;;;;;;;35.95;24.70;;;;;;;15.35;40.49;101106.91;5089332;28;20636;-76
2023/03/20 20:33:21;;;;;;;26.10;17.55;;;;;;;15.39;40.68;101107.38;5089382;28;20381;-76
2023/03/20 20:35:47;;;;;;;23.15;12.95;;;;;;;15.42;40.52;101109.66;5090293;28;20456;-76
2023/03/20 20:38:13;;;;;;;26.05;16.90;;;;;;;15.42;40.40;101107.81;5089961;28;20473;-76
2023/03/20 20:40:40;;;;;;;21.20;15.37;;;;;;;15.38;40.61;101103.88;5089620;28;20873;-76
2023/03/20 20:43:06;;;;;;;20.60;14.23;;;;;;;15.41;40.42;101108.84;5090033;28;20392;-75
2023/03/20 20:45:32;;;;;;;22.08;15.60;;;;;;;15.37;40.53;101104.88;5089396;28;20451;-76
2023/03/20 20:47:58;;;;;;;21.75;15.40;;;;;;;15.42;40.65;101102.47;5089911;28;20373;-76
2023/03/20 20:50:26;;;;;;;26.63;17.80;;;;;;;15.37;40.56;101099.53;5089083;28;20385;-75
2023/03/20 20:52:53;;;;;;;22.52;14.30;;;;;;;15.34;40.89;101110.63;5089973;28;20450;-75
2023/03/20 20:55:20;;;;;;;23.45;14.77;;;;;;;15.36;40.85;101105.91;5091561;28;20374;-75
2023/03/20 20:57:47;;;;;;;25.58;18.13;;;;;;;15.35;40.92;101104.25;5088878;28;20877;-75
2023/03/20 21:00:14;;;;;;;25.60;17.33;;;;;;;15.36;41.01;101103.25;5089308;28;20442;-75
2023/03/20 21:02:39;;;;;;;21.52;15.70;;;;;;;15.33;40.85;101092.94;5090179;28;20374;-78
2023/03/20 21:05:07;;;;;;;24.75;15.75;;;;;;;15.32;40.94;101103.81;5091308;28;20392;-76
2023/03/20 21:07:33;;;;;;;22.98;15.85;;;;;;;15.29;41.00;101103.19;5090017;28;20377;-76
2023/03/20 21:10:00;;;;;;;24.65;15.90;;;;;;;15.29;41.17;101105.03;5089461;28;20381;-76
2023/03/20 21:12:25;;;;;;;20.67;15.88;;;;;;;15.32;41.26;101104.63;5091377;28;20405;-75
2023/03/20 21:14:51;;;;;;;21.60;16.33;;;;;;;15.27;41.20;101102.53;5101855;28;20389;-76
2023/03/20 21:17:17;;;;;;;23.85;17.08;;;;;;;15.22;41.29;101104.13;5097423;28;20403;-76
2023/03/20 21:19:42;;;;;;;22.77;16.23;;;;;;;15.16;41.60;101110.22;5077744;28;20370;-77
2023/03/20 21:22:11;;;;;;;25.20;17.73;;;;;;;15.04;41.82;101110.72;5091977;28;20377;-76
2023/03/20 21:24:36;;;;;;;27.35;19.02;;;;;;;14.95;42.07;101116.41;5092391;28;20380;-76
2023/03/20 21:27:05;;;;;;;28.45;18.80;;;;;;;14.90;42.25;101112.44;5091394;28;20789;-76
2023/03/20 21:29:31;;;;;;;33.05;19.95;;;;;;;14.87;42.70;101111.97;5089268;28;20377;-76
2023/03/20 21:31:56;;;;;;;35.80;21.60;;;;;;;14.90;42.62;101115.09;5086908;28;20512;-76
2023/03/20 21:34:22;;;;;;;34.30;23.00;;;;;;;14.90;42.50;101112.44;5088337;28;21213;-76
2023/03/20 21:36:47;;;;;;;33.47;25.63;;;;;;;14.97;42.14;101125.03;5088984;28;20925;-76
2023/03/20 21:39:13;;;;;;;33.63;24.47;;;;;;;14.93;42.34;101118.41;5092425;28;20366;-75
2023/03/20 21:41:40;;;;;;;32.13;22.25;;;;;;;14.97;42.24;101112.50;5091381;28;20857;-75
2023/03/20 21:44:07;;;;;;;30.40;19.83;;;;;;;14.98;42.51;101116.84;5092220;28;20423;-76
2023/03/20 21:46:33;;;;;;;26.92;19.02;;;;;;;14.97;42.55;101115.19;5092946;28;20373;-75
2023/03/20 21:48:59;;;;;;;32.35;20.27;;;;;;;14.98;42.57;101116.84;5099906;28;20409;-74
2023/03/20 21:51:25;;;;;;;31.15;20.20;;;;;;;14.94;42.42;101104.06;5101905;28;20448;-76
2023/03/20 21:53:50;;;;;;;28.35;19.50;;;;;;;14.97;42.32;101111.69;5097221;28;20373;-75
2023/03/20 21:56:17;;;;;;;26.83;19.13;;;;;;;14.95;42.75;101113.72;5093171;28;20377;-75
2023/03/20 21:58:45;;;;;;;27.83;19.50;;;;;;;14.86;42.65;101099.66;5093059;28;20357;-75
2023/03/20 22:01:11;;;;;;;31.40;20.40;;;;;;;14.86;42.80;101102.34;5092919;28;20369;-77
2023/03/20 22:03:38;;;;;;;30.53;21.00;;;;;;;14.81;42.77;101105.56;5089933;28;20853;-75
2023/03/20 22:06:05;;;;;;;30.95;22.52;;;;;;;14.85;42.71;101103.34;5091870;28;20392;-75
2023/03/20 22:08:31;;;;;;;35.10;22.65;;;;;;;14.80;42.94;101105.75;5090833;28;20400;-75
2023/03/20 22:10:56;;;;;;;30.52;21.58;;;;;;;14.78;43.13;101103.25;5092528;28;20400;-76
2023/03/20 22:13:22;;;;;;;35.53;22.47;;;;;;;14.81;43.14;101110.06;5091181;28;20378;-76
2023/03/20 22:15:48;;;;;;;30.38;21.20;;;;;;;14.78;42.77;101100.59;5090013;28;20985;-76
2023/03/20 22:18:15;;;;;;;31.83;23.40;;;;;;;14.72;43.04;101104.03;5091183;28;20784;-76
2023/03/20 22:20:45;;;;;;;35.83;24.23;;;;;;;14.76;42.92;101102.63;5091352;28;20417;-76
2023/03/20 22:23:11;;;;;;;36.03;25.00;;;;;;;14.70;43.11;101096.19;5090346;28;20416;-75
2023/03/20 22:25:37;;;;;;;57.13;34.55;;;;;;;14.71;43.00;101089.00;5091995;28;20381;-75
2023/03/20 22:28:02;;;;;;;113.75;62.47;;;;;;;14.72;42.90;101104.03;5092380;28;20372;-76
2023/03/20 22:30:28;;;;;;;51.58;34.92;;;;;;;14.77;42.83;101095.47;5092843;28;20373;-75
2023/03/20 22:32:54;;;;;;;36.30;25.10;;;;;;;14.80;42.71;101101.25;5092948;28;20480;-77
2023/03/20 22:35:19;;;;;;;37.50;23.97;;;;;;;14.74;42.85;101090.50;5093472;28;20373;-76
2023/03/20 22:37:46;;;;;;;36.10;24.10;;;;;;;14.73;42.87;101092.34;5092495;28;20446;-75
2023/03/20 22:40:12;;;;;;;37.40;25.83;;;;;;;14.71;42.87;101087.19;5090535;28;20388;-76
2023/03/20 22:42:39;;;;;;;34.13;22.63;;;;;;;14.72;42.93;101090.69;5091731;28;20391;-75
2023/03/20 22:45:05;;;;;;;36.47;24.55;;;;;;;14.64;42.74;101077.44;5091582;28;20388;-75
2023/03/20 22:47:30;;;;;;;36.63;25.38;;;;;;;14.60;42.86;101087.66;5092621;28;20381;-75
2023/03/20 22:49:56;;;;;;;40.03;23.60;;;;;;;14.59;42.97;101087.88;5091871;28;20374;-77
2023/03/20 22:52:21;;;;;;;31.97;22.67;;;;;;;14.53;43.06;101079.56;5091932;28;20825;-76
2023/03/20 22:54:47;;;;;;;30.40;20.37;;;;;;;14.56;43.05;101082.88;5090163;28;20434;-76
2023/03/20 22:57:12;;;;;;;26.07;19.77;;;;;;;14.62;43.12;101074.97;5093542;28;20369;-76
2023/03/20 22:59:38;;;;;;;23.77;17.00;;;;;;;14.65;42.52;101071.09;5093006;28;20458;-76
2023/03/20 23:02:03;;;;;;;29.20;20.10;;;;;;;14.68;42.40;101073.41;5092776;28;20403;-76
2023/03/20 23:04:29;;;;;;;33.35;22.23;;;;;;;14.75;42.00;101071.63;5092772;28;20443;-77
2023/03/20 23:06:54;;;;;;;34.63;22.30;;;;;;;14.83;42.01;101082.16;5092955;28;20388;-76
2023/03/20 23:09:20;;;;;;;31.98;22.50;;;;;;;14.82;42.20;101088.53;5097279;28;20369;-75
2023/03/20 23:11:46;;;;;;;34.50;23.92;;;;;;;14.82;42.05;101085.03;5100608;28;20401;-75
2023/03/20 23:14:12;;;;;;;32.58;21.60;;;;;;;14.68;42.64;101082.22;5095957;28;20846;-75
2023/03/20 23:16:37;;;;;;;28.08;19.75;;;;;;;14.68;42.44;101082.22;5090775;28;20975;-75
2023/03/20 23:19:03;;;;;;;28.33;19.47;;;;;;;14.67;42.42;101085.88;5091494;28;20938;-76
2023/03/20 23:21:29;;;;;;;26.27;18.08;;;;;;;14.65;42.45;101077.25;5092353;28;20389;-76
2023/03/20 23:23:54;;;;;;;25.95;16.85;;;;;;;14.65;42.42;101079.91;5091638;28;20863;-76
2023/03/20 23:26:20;;;;;;;26.53;15.97;;;;;;;14.67;42.84;101075.22;5091789;28;20381;-76
2023/03/20 23:28:50;;;;;;;25.67;17.35;;;;;;;14.68;42.84;101071.53;5092758;28;20419;-76
2023/03/20 23:31:22;;;;;;;32.08;18.35;;;;;;;14.72;42.54;101086.16;5092001;28;20429;-76
2023/03/20 23:33:50;;;;;;;26.30;16.83;;;;;;;14.69;42.62;101080.38;5091086;28;20857;-76
2023/03/20 23:36:16;;;;;;;24.30;16.70;;;;;;;14.67;42.62;101087.75;5091319;28;20369;-76
2023/03/20 23:38:42;;;;;;;26.10;15.85;;;;;;;14.69;42.39;101081.22;5090934;28;20409;-76
2023/03/20 23:41:09;;;;;;;23.13;14.52;;;;;;;14.67;42.55;101083.22;5091079;28;20377;-76
2023/03/20 23:43:36;;;;;;;22.43;14.33;;;;;;;14.60;42.63;101079.66;5090960;28;20385;-75
2023/03/20 23:46:03;;;;;;;19.95;13.48;;;;;;;14.42;42.84;101080.03;5091365;28;20377;-75
2023/03/20 23:48:29;;;;;;;20.63;13.15;;;;;;;14.24;43.21;101079.59;5092609;28;20409;-76
2023/03/20 23:50:55;;;;;;;20.67;12.48;;;;;;;14.16;43.45;101077.84;5091955;28;20421;-75
2023/03/20 23:53:21;;;;;;;16.77;11.77;;;;;;;14.05;43.61;101078.31;5091831;28;20373;-75
2023/03/20 23:55:49;;;;;;;22.55;12.85;;;;;;;14.05;43.93;101075.66;5092122;28;20369;-76
2023/03/20 23:58:15;;;;;;;19.02;13.27;;;;;;;14.06;43.45;101075.47;5092343;28;20365;-75
